sensor_id;sensor_type;location;lat;lon;timestamp;pressure;altitude;pressure_sealevel;temperature
71630;BMP280;59479;51.902;8.212;2023-03-16T00:00:11;101476.31;;;4.62
71630;BMP280;59479;51.902;8.212;2023-03-16T00:02:46;101476.31;;;4.62
71630;BMP280;59479;51.902;8.212;2023-03-16T00:05:16;101478.13;;;4.66
71630;BMP280;59479;51.902;8.212;2023-03-16T00:07:42;101480.34;;;4.58
71630;BMP280;59479;51.902;8.212;2023-03-16T00:10:14;101481.09;;;4.56
71630;BMP280;59479;51.902;8.212;2023-03-16T00:12:55;101477.78;;;4.57
71630;BMP280;59479;51.902;8.212;2023-03-16T00:15:29;101486.28;;;4.62
71630;BMP280;59479;51.902;8.212;2023-03-16T00:18:24;101486.22;;;4.60
71630;BMP280;59479;51.902;8.212;2023-03-16T00:21:00;101487.81;;;4.58
71630;BMP280;59479;51.902;8.212;2023-03-16T00:23:35;101484.56;;;4.61
71630;BMP280;59479;51.902;8.212;2023-03-16T00:28:44;101487.88;;;4.60
71630;BMP280;59479;51.902;8.212;2023-03-16T00:31:10;101488.69;;;4.60
71630;BMP280;59479;51.902;8.212;2023-03-16T00:34:01;101485.38;;;4.60
71630;BMP280;59479;51.902;8.212;2023-03-16T00:36:30;101487.06;;;4.61
71630;BMP280;59479;51.902;8.212;2023-03-16T00:39:11;101486.78;;;4.54
71630;BMP280;59479;51.902;8.212;2023-03-16T00:45:19;101475.09;;;4.51
71630;BMP280;59479;51.902;8.212;2023-03-16T00:47:53;101478.25;;;4.47
71630;BMP280;59479;51.902;8.212;2023-03-16T00:50:25;101469.81;;;4.44
71630;BMP280;59479;51.902;8.212;2023-03-16T00:52:59;101466.47;;;4.43
71630;BMP280;59479;51.902;8.212;2023-03-16T00:55:28;101470.72;;;4.46
71630;BMP280;59479;51.902;8.212;2023-03-16T00:57:53;101468.97;;;4.43
71630;BMP280;59479;51.902;8.212;2023-03-16T01:00:19;101454.59;;;4.36
71630;BMP280;59479;51.902;8.212;2023-03-16T01:02:45;101450.28;;;4.32
71630;BMP280;59479;51.902;8.212;2023-03-16T01:05:12;101453.53;;;4.30
71630;BMP280;59479;51.902;8.212;2023-03-16T01:07:38;101457.53;;;4.26
71630;BMP280;59479;51.902;8.212;2023-03-16T01:10:05;101445.88;;;4.25
71630;BMP280;59479;51.902;8.212;2023-03-16T01:12:30;101441.81;;;4.27
71630;BMP280;59479;51.902;8.212;2023-03-16T01:14:56;101445.88;;;4.25
71630;BMP280;59479;51.902;8.212;2023-03-16T01:17:21;101451.88;;;4.30
71630;BMP280;59479;51.902;8.212;2023-03-16T01:19:47;101456.56;;;4.23
71630;BMP280;59479;51.902;8.212;2023-03-16T01:22:13;101460.69;;;4.22
71630;BMP280;59479;51.902;8.212;2023-03-16T01:24:40;101458.88;;;4.18
71630;BMP280;59479;51.902;8.212;2023-03-16T01:27:08;101452.09;;;4.15
71630;BMP280;59479;51.902;8.212;2023-03-16T01:29:33;101461.25;;;4.16
71630;BMP280;59479;51.902;8.212;2023-03-16T01:31:59;101452.88;;;4.14
71630;BMP280;59479;51.902;8.212;2023-03-16T01:34:25;101457.72;;;4.11
71630;BMP280;59479;51.902;8.212;2023-03-16T01:36:51;101454.41;;;4.10
71630;BMP280;59479;51.902;8.212;2023-03-16T01:39:16;101448.22;;;4.01
71630;BMP280;59479;51.902;8.212;2023-03-16T01:41:43;101443.38;;;4.04
71630;BMP280;59479;51.902;8.212;2023-03-16T01:44:14;101440.31;;;4.11
71630;BMP280;59479;51.902;8.212;2023-03-16T01:46:40;101430.50;;;4.14
71630;BMP280;59479;51.902;8.212;2023-03-16T01:49:14;101427.22;;;4.15
71630;BMP280;59479;51.902;8.212;2023-03-16T01:51:52;101424.75;;;4.15
71630;BMP280;59479;51.902;8.212;2023-03-16T01:54:30;101413.63;;;4.07
71630;BMP280;59479;51.902;8.212;2023-03-16T01:57:10;101412.00;;;4.07
71630;BMP280;59479;51.902;8.212;2023-03-16T01:59:40;101406.63;;;3.97
71630;BMP280;59479;51.902;8.212;2023-03-16T02:02:08;101406.63;;;3.97
71630;BMP280;59479;51.902;8.212;2023-03-16T02:07:14;101382.47;;;3.94
71630;BMP280;59479;51.902;8.212;2023-03-16T02:09:43;101379.94;;;3.93
71630;BMP280;59479;51.902;8.212;2023-03-16T02:12:10;101373.28;;;3.92
71630;BMP280;59479;51.902;8.212;2023-03-16T02:14:46;101375.00;;;3.94
71630;BMP280;59479;51.902;8.212;2023-03-16T02:17:16;101363.31;;;3.92
71630;BMP280;59479;51.902;8.212;2023-03-16T02:22:34;101369.75;;;3.87
71630;BMP280;59479;51.902;8.212;2023-03-16T02:25:00;101378.25;;;3.92
71630;BMP280;59479;51.902;8.212;2023-03-16T02:30:16;101381.41;;;3.88
71630;BMP280;59479;51.902;8.212;2023-03-16T02:32:43;101373.16;;;3.89
71630;BMP280;59479;51.902;8.212;2023-03-16T02:35:10;101370.53;;;3.86
71630;BMP280;59479;51.902;8.212;2023-03-16T02:37:37;101372.19;;;3.85
71630;BMP280;59479;51.902;8.212;2023-03-16T02:40:17;101367.97;;;3.83
71630;BMP280;59479;51.902;8.212;2023-03-16T02:42:46;101366.25;;;3.82
71630;BMP280;59479;51.902;8.212;2023-03-16T02:45:12;101372.88;;;3.81
71630;BMP280;59479;51.902;8.212;2023-03-16T02:47:41;101372.06;;;3.82
71630;BMP280;59479;51.902;8.212;2023-03-16T02:50:08;101370.00;;;3.73
71630;BMP280;59479;51.902;8.212;2023-03-16T02:52:35;101371.84;;;3.76
71630;BMP280;59479;51.902;8.212;2023-03-16T02:55:01;101370.13;;;3.75
71630;BMP280;59479;51.902;8.212;2023-03-16T02:57:27;101373.66;;;3.80
71630;BMP280;59479;51.902;8.212;2023-03-16T02:59:52;101364.53;;;3.81
71630;BMP280;59479;51.902;8.212;2023-03-16T03:02:18;101364.53;;;3.81
71630;BMP280;59479;51.902;8.212;2023-03-16T03:04:43;101370.31;;;3.80
71630;BMP280;59479;51.902;8.212;2023-03-16T03:07:12;101376.19;;;3.82
71630;BMP280;59479;51.902;8.212;2023-03-16T03:09:42;101361.41;;;3.85
71630;BMP280;59479;51.902;8.212;2023-03-16T03:12:08;101359.69;;;3.84
71630;BMP280;59479;51.902;8.212;2023-03-16T03:14:34;101360.38;;;3.80
71630;BMP280;59479;51.902;8.212;2023-03-16T03:17:04;101353.41;;;3.72
71630;BMP280;59479;51.902;8.212;2023-03-16T03:19:32;101362.75;;;3.77
71630;BMP280;59479;51.902;8.212;2023-03-16T03:21:58;101364.31;;;3.75
71630;BMP280;59479;51.902;8.212;2023-03-16T03:24:23;101353.53;;;3.75
71630;BMP280;59479;51.902;8.212;2023-03-16T03:26:49;101349.41;;;3.75
71630;BMP280;59479;51.902;8.212;2023-03-16T03:29:14;101345.16;;;3.73
71630;BMP280;59479;51.902;8.212;2023-03-16T03:31:39;101354.25;;;3.72
71630;BMP280;59479;51.902;8.212;2023-03-16T03:34:05;101345.72;;;3.66
71630;BMP280;59479;51.902;8.212;2023-03-16T03:36:32;101349.16;;;3.69
71630;BMP280;59479;51.902;8.212;2023-03-16T03:39:00;101349.03;;;3.66
71630;BMP280;59479;51.902;8.212;2023-03-16T03:41:29;101362.50;;;3.71
71630;BMP280;59479;51.902;8.212;2023-03-16T03:43:54;101358.31;;;3.70
71630;BMP280;59479;51.902;8.212;2023-03-16T03:46:20;101350.63;;;3.64
71630;BMP280;59479;51.902;8.212;2023-03-16T03:48:45;101347.22;;;3.62
71630;BMP280;59479;51.902;8.212;2023-03-16T03:51:10;101348.13;;;3.64
71630;BMP280;59479;51.902;8.212;2023-03-16T03:53:36;101345.56;;;3.61
71630;BMP280;59479;51.902;8.212;2023-03-16T03:56:01;101345.66;;;3.64
71630;BMP280;59479;51.902;8.212;2023-03-16T03:58:26;101345.56;;;3.61
71630;BMP280;59479;51.902;8.212;2023-03-16T04:00:52;101343.22;;;3.66
71630;BMP280;59479;51.902;8.212;2023-03-16T04:03:17;101336.50;;;3.63
71630;BMP280;59479;51.902;8.212;2023-03-16T04:05:42;101347.34;;;3.65
71630;BMP280;59479;51.902;8.212;2023-03-16T04:08:08;101346.56;;;3.66
71630;BMP280;59479;51.902;8.212;2023-03-16T04:10:33;101337.28;;;3.62
71630;BMP280;59479;51.902;8.212;2023-03-16T04:12:59;101332.38;;;3.64
71630;BMP280;59479;51.902;8.212;2023-03-16T04:15:25;101332.44;;;3.65
71630;BMP280;59479;51.902;8.212;2023-03-16T04:17:50;101335.66;;;3.63
71630;BMP280;59479;51.902;8.212;2023-03-16T04:20:19;101333.91;;;3.60
71630;BMP280;59479;51.902;8.212;2023-03-16T04:22:45;101330.03;;;3.67
71630;BMP280;59479;51.902;8.212;2023-03-16T04:25:13;101327.59;;;3.68
71630;BMP280;59479;51.902;8.212;2023-03-16T04:27:39;101324.19;;;3.66
71630;BMP280;59479;51.902;8.212;2023-03-16T04:30:10;101334.94;;;3.65
71630;BMP280;59479;51.902;8.212;2023-03-16T04:32:36;101331.69;;;3.68
71630;BMP280;59479;51.902;8.212;2023-03-16T04:35:02;101326.00;;;3.70
71630;BMP280;59479;51.902;8.212;2023-03-16T04:37:28;101327.59;;;3.68
71630;BMP280;59479;51.902;8.212;2023-03-16T04:39:53;101316.19;;;3.73
71630;BMP280;59479;51.902;8.212;2023-03-16T04:42:18;101315.03;;;3.65
71630;BMP280;59479;51.902;8.212;2023-03-16T04:44:44;101308.72;;;3.73
71630;BMP280;59479;51.902;8.212;2023-03-16T04:47:14;101313.63;;;3.72
71630;BMP280;59479;51.902;8.212;2023-03-16T04:49:39;101307.19;;;3.76
71630;BMP280;59479;51.902;8.212;2023-03-16T04:52:05;101312.00;;;3.72
71630;BMP280;59479;51.902;8.212;2023-03-16T04:54:31;101308.09;;;3.78
71630;BMP280;59479;51.902;8.212;2023-03-16T04:56:57;101304.88;;;3.81
71630;BMP280;59479;51.902;8.212;2023-03-16T04:59:24;101300.47;;;3.74
71630;BMP280;59479;51.902;8.212;2023-03-16T05:01:49;101304.88;;;3.81
71630;BMP280;59479;51.902;8.212;2023-03-16T05:04:15;101306.91;;;3.69
71630;BMP280;59479;51.902;8.212;2023-03-16T05:06:40;101301.47;;;3.79
71630;BMP280;59479;51.902;8.212;2023-03-16T05:09:06;101306.44;;;3.79
71630;BMP280;59479;51.902;8.212;2023-03-16T05:11:34;101306.44;;;3.79
71630;BMP280;59479;51.902;8.212;2023-03-16T05:13:59;101305.50;;;3.75
71630;BMP280;59479;51.902;8.212;2023-03-16T05:16:27;101301.28;;;3.73
71630;BMP280;59479;51.902;8.212;2023-03-16T05:18:53;101293.06;;;3.75
71630;BMP280;59479;51.902;8.212;2023-03-16T05:21:21;101297.31;;;3.78
71630;BMP280;59479;51.902;8.212;2023-03-16T05:23:46;101291.66;;;3.82
71630;BMP280;59479;51.902;8.212;2023-03-16T05:26:12;101282.94;;;3.71
71630;BMP280;59479;51.902;8.212;2023-03-16T05:28:37;101285.03;;;3.82
71630;BMP280;59479;51.902;8.212;2023-03-16T05:31:03;101294.91;;;3.81
71630;BMP280;59479;51.902;8.212;2023-03-16T05:33:28;101283.28;;;3.80
71630;BMP280;59479;51.902;8.212;2023-03-16T05:35:54;101294.16;;;3.82
71630;BMP280;59479;51.902;8.212;2023-03-16T05:38:23;101290.88;;;3.83
71630;BMP280;59479;51.902;8.212;2023-03-16T05:40:48;101291.66;;;3.82
71630;BMP280;59479;51.902;8.212;2023-03-16T05:43:18;101285.09;;;3.84
71630;BMP280;59479;51.902;8.212;2023-03-16T05:45:44;101282.59;;;3.84
71630;BMP280;59479;51.902;8.212;2023-03-16T05:48:09;101286.06;;;3.87
71630;BMP280;59479;51.902;8.212;2023-03-16T05:50:34;101275.28;;;3.87
71630;BMP280;59479;51.902;8.212;2023-03-16T05:53:00;101277.56;;;3.82
71630;BMP280;59479;51.902;8.212;2023-03-16T05:55:25;101271.19;;;3.89
71630;BMP280;59479;51.902;8.212;2023-03-16T05:57:51;101279.56;;;3.91
71630;BMP280;59479;51.902;8.212;2023-03-16T06:00:16;101281.13;;;3.89
71630;BMP280;59479;51.902;8.212;2023-03-16T06:02:47;101272.19;;;3.94
71630;BMP280;59479;51.902;8.212;2023-03-16T06:05:14;101273.78;;;3.92
71630;BMP280;59479;51.902;8.212;2023-03-16T06:07:40;101279.09;;;4.01
71630;BMP280;59479;51.902;8.212;2023-03-16T06:10:07;101264.34;;;4.05
71630;BMP280;59479;51.902;8.212;2023-03-16T06:12:33;101260.97;;;4.03
71630;BMP280;59479;51.902;8.212;2023-03-16T06:15:02;101260.09;;;4.03
71630;BMP280;59479;51.902;8.212;2023-03-16T06:17:27;101260.06;;;4.01
71630;BMP280;59479;51.902;8.212;2023-03-16T06:19:52;101252.63;;;4.03
71630;BMP280;59479;51.902;8.212;2023-03-16T06:22:18;101254.50;;;4.08
71630;BMP280;59479;51.902;8.212;2023-03-16T06:24:46;101262.88;;;4.10
71630;BMP280;59479;51.902;8.212;2023-03-16T06:27:11;101260.38;;;4.10
71630;BMP280;59479;51.902;8.212;2023-03-16T06:29:37;101268.84;;;4.15
71630;BMP280;59479;51.902;8.212;2023-03-16T06:32:02;101265.59;;;4.17
71630;BMP280;59479;51.902;8.212;2023-03-16T06:34:28;101266.53;;;4.19
71630;BMP280;59479;51.902;8.212;2023-03-16T06:36:53;101260.91;;;4.25
71630;BMP280;59479;51.902;8.212;2023-03-16T06:39:18;101259.31;;;4.27
71630;BMP280;59479;51.902;8.212;2023-03-16T06:41:43;101258.38;;;4.23
71630;BMP280;59479;51.902;8.212;2023-03-16T06:44:09;101257.00;;;4.31
71630;BMP280;59479;51.902;8.212;2023-03-16T06:46:36;101259.69;;;4.37
71630;BMP280;59479;51.902;8.212;2023-03-16T06:49:01;101256.66;;;4.46
71630;BMP280;59479;51.902;8.212;2023-03-16T06:51:28;101256.59;;;4.44
71630;BMP280;59479;51.902;8.212;2023-03-16T06:53:54;101262.28;;;4.40
71630;BMP280;59479;51.902;8.212;2023-03-16T06:56:19;101258.41;;;4.48
71630;BMP280;59479;51.902;8.212;2023-03-16T06:58:44;101259.09;;;4.44
71630;BMP280;59479;51.902;8.212;2023-03-16T07:01:10;101254.13;;;4.44
71630;BMP280;59479;51.902;8.212;2023-03-16T07:03:36;101255.13;;;4.49
71630;BMP280;59479;51.902;8.212;2023-03-16T07:06:02;101252.84;;;4.55
71630;BMP280;59479;51.902;8.212;2023-03-16T07:08:27;101262.03;;;4.57
71630;BMP280;59479;51.902;8.212;2023-03-16T07:10:53;101265.47;;;4.61
71630;BMP280;59479;51.902;8.212;2023-03-16T07:13:18;101260.72;;;4.67
71630;BMP280;59479;51.902;8.212;2023-03-16T07:15:44;101259.06;;;4.67
71630;BMP280;59479;51.902;8.212;2023-03-16T07:18:09;101258.38;;;4.71
71630;BMP280;59479;51.902;8.212;2023-03-16T07:20:37;101264.09;;;4.69
71630;BMP280;59479;51.902;8.212;2023-03-16T07:23:02;101261.44;;;4.63
71630;BMP280;59479;51.902;8.212;2023-03-16T07:25:29;101268.34;;;4.71
71630;BMP280;59479;51.902;8.212;2023-03-16T07:27:55;101269.13;;;4.70
71630;BMP280;59479;51.902;8.212;2023-03-16T07:30:20;101276.88;;;4.78
71630;BMP280;59479;51.902;8.212;2023-03-16T07:32:46;101277.75;;;4.80
71630;BMP280;59479;51.902;8.212;2023-03-16T07:35:11;101272.66;;;4.77
71630;BMP280;59479;51.902;8.212;2023-03-16T07:37:36;101276.22;;;4.83
71630;BMP280;59479;51.902;8.212;2023-03-16T07:40:03;101284.63;;;4.87
71630;BMP280;59479;51.902;8.212;2023-03-16T07:42:29;101274.78;;;4.90
71630;BMP280;59479;51.902;8.212;2023-03-16T07:44:54;101280.53;;;4.89
71630;BMP280;59479;51.902;8.212;2023-03-16T07:47:20;101288.94;;;4.92
71630;BMP280;59479;51.902;8.212;2023-03-16T07:49:45;101295.47;;;4.89
71630;BMP280;59479;51.902;8.212;2023-03-16T07:52:10;101283.09;;;4.90
71630;BMP280;59479;51.902;8.212;2023-03-16T07:54:38;101286.81;;;5.02
71630;BMP280;59479;51.902;8.212;2023-03-16T07:57:04;101280.19;;;5.03
71630;BMP280;59479;51.902;8.212;2023-03-16T07:59:30;101274.44;;;5.05
71630;BMP280;59479;51.902;8.212;2023-03-16T08:01:56;101276.06;;;5.03
71630;BMP280;59479;51.902;8.212;2023-03-16T08:04:21;101276.81;;;5.01
71630;BMP280;59479;51.902;8.212;2023-03-16T08:06:47;101267.19;;;5.11
71630;BMP280;59479;51.902;8.212;2023-03-16T08:09:12;101256.72;;;5.21
71630;BMP280;59479;51.902;8.212;2023-03-16T08:11:37;101256.72;;;5.21
71630;BMP280;59479;51.902;8.212;2023-03-16T08:14:03;101263.00;;;5.37
71630;BMP280;59479;51.902;8.212;2023-03-16T08:16:29;101253.97;;;5.40
71630;BMP280;59479;51.902;8.212;2023-03-16T08:18:56;101253.06;;;5.38
71630;BMP280;59479;51.902;8.212;2023-03-16T08:21:21;101263.25;;;5.45
71630;BMP280;59479;51.902;8.212;2023-03-16T08:23:47;101265.97;;;5.51
71630;BMP280;59479;51.902;8.212;2023-03-16T08:26:19;101262.75;;;5.55
71630;BMP280;59479;51.902;8.212;2023-03-16T08:28:45;101262.06;;;5.59
71630;BMP280;59479;51.902;8.212;2023-03-16T08:31:11;101264.81;;;5.68
71630;BMP280;59479;51.902;8.212;2023-03-16T08:33:38;101272.38;;;5.71
71630;BMP280;59479;51.902;8.212;2023-03-16T08:36:08;101265.13;;;5.79
71630;BMP280;59479;51.902;8.212;2023-03-16T08:38:33;101257.91;;;5.87
71630;BMP280;59479;51.902;8.212;2023-03-16T08:40:59;101255.34;;;5.85
71630;BMP280;59479;51.902;8.212;2023-03-16T08:43:26;101258.81;;;5.89
71630;BMP280;59479;51.902;8.212;2023-03-16T08:45:51;101265.53;;;5.92
71630;BMP280;59479;51.902;8.212;2023-03-16T08:48:18;101255.81;;;6.01
71630;BMP280;59479;51.902;8.212;2023-03-16T08:50:44;101266.00;;;6.08
71630;BMP280;59479;51.902;8.212;2023-03-16T08:53:12;101261.06;;;6.10
71630;BMP280;59479;51.902;8.212;2023-03-16T08:55:38;101274.50;;;6.15
71630;BMP280;59479;51.902;8.212;2023-03-16T08:58:06;101266.25;;;6.17
71630;BMP280;59479;51.902;8.212;2023-03-16T09:00:32;101264.56;;;6.16
71630;BMP280;59479;51.902;8.212;2023-03-16T09:02:58;101265.03;;;6.32
71630;BMP280;59479;51.902;8.212;2023-03-16T09:05:25;101261.09;;;6.42
71630;BMP280;59479;51.902;8.212;2023-03-16T09:07:51;101252.25;;;6.53
71630;BMP280;59479;51.902;8.212;2023-03-16T09:10:17;101251.56;;;6.58
71630;BMP280;59479;51.902;8.212;2023-03-16T09:12:44;101257.38;;;6.59
71630;BMP280;59479;51.902;8.212;2023-03-16T09:15:11;101260.91;;;6.65
71630;BMP280;59479;51.902;8.212;2023-03-16T09:17:38;101257.00;;;6.74
71630;BMP280;59479;51.902;8.212;2023-03-16T09:20:06;101256.09;;;6.72
71630;BMP280;59479;51.902;8.212;2023-03-16T09:22:34;101250.50;;;6.81
71630;BMP280;59479;51.902;8.212;2023-03-16T09:25:01;101246.53;;;6.90
71630;BMP280;59479;51.902;8.212;2023-03-16T09:27:26;101249.00;;;6.89
71630;BMP280;59479;51.902;8.212;2023-03-16T09:29:51;101250.88;;;6.96
71630;BMP280;59479;51.902;8.212;2023-03-16T09:32:19;101251.13;;;7.06
71630;BMP280;59479;51.902;8.212;2023-03-16T09:34:45;101247.94;;;7.13
71630;BMP280;59479;51.902;8.212;2023-03-16T09:37:11;101248.81;;;7.15
71630;BMP280;59479;51.902;8.212;2023-03-16T09:39:36;101242.34;;;7.23
71630;BMP280;59479;51.902;8.212;2023-03-16T09:47:30;101237.00;;;7.45
71630;BMP280;59479;51.902;8.212;2023-03-16T09:49:59;101247.97;;;7.50
71630;BMP280;59479;51.902;8.212;2023-03-16T09:55:22;101241.44;;;7.56
71630;BMP280;59479;51.902;8.212;2023-03-16T09:57:51;101239.06;;;7.63
71630;BMP280;59479;51.902;8.212;2023-03-16T10:00:21;101242.63;;;7.73
71630;BMP280;59479;51.902;8.212;2023-03-16T10:05:20;101257.75;;;7.79
71630;BMP280;59479;51.902;8.212;2023-03-16T10:07:49;101246.91;;;7.78
71630;BMP280;59479;51.902;8.212;2023-03-16T10:12:56;101243.03;;;7.91
71630;BMP280;59479;51.902;8.212;2023-03-16T10:15:25;101247.34;;;7.99
71630;BMP280;59479;51.902;8.212;2023-03-16T10:18:00;101245.75;;;8.02
71630;BMP280;59479;51.902;8.212;2023-03-16T10:20:32;101242.41;;;8.03
71630;BMP280;59479;51.902;8.212;2023-03-16T10:22:58;101241.69;;;8.07
71630;BMP280;59479;51.902;8.212;2023-03-16T10:25:40;101239.25;;;8.10
71630;BMP280;59479;51.902;8.212;2023-03-16T10:28:11;101230.97;;;8.13
71630;BMP280;59479;51.902;8.212;2023-03-16T10:30:39;101237.03;;;8.25
71630;BMP280;59479;51.902;8.212;2023-03-16T10:33:30;101230.31;;;8.21
71630;BMP280;59479;51.902;8.212;2023-03-16T10:36:03;101227.75;;;8.20
71630;BMP280;59479;51.902;8.212;2023-03-16T10:38:40;101237.91;;;8.26
71630;BMP280;59479;51.902;8.212;2023-03-16T10:46:23;101235.50;;;8.32
71630;BMP280;59479;51.902;8.212;2023-03-16T10:48:57;101233.16;;;8.40
71630;BMP280;59479;51.902;8.212;2023-03-16T10:51:35;101248.31;;;8.46
71630;BMP280;59479;51.902;8.212;2023-03-16T10:54:14;101235.81;;;8.48
71630;BMP280;59479;51.902;8.212;2023-03-16T10:56:40;101225.78;;;8.48
71630;BMP280;59479;51.902;8.212;2023-03-16T10:59:34;101219.09;;;8.48
71630;BMP280;59479;51.902;8.212;2023-03-16T11:02:13;101223.47;;;8.58
71630;BMP280;59479;51.902;8.212;2023-03-16T11:04:39;101215.22;;;8.65
71630;BMP280;59479;51.902;8.212;2023-03-16T11:07:06;101224.44;;;8.66
71630;BMP280;59479;51.902;8.212;2023-03-16T11:09:39;101202.75;;;8.68
71630;BMP280;59479;51.902;8.212;2023-03-16T11:12:20;101208.69;;;8.73
71630;BMP280;59479;51.902;8.212;2023-03-16T11:14:46;101210.19;;;8.64
71630;BMP280;59479;51.902;8.212;2023-03-16T11:17:27;101208.47;;;8.61
71630;BMP280;59479;51.902;8.212;2023-03-16T11:19:59;101209.31;;;8.62
71630;BMP280;59479;51.902;8.212;2023-03-16T11:22:37;101203.53;;;8.64
71630;BMP280;59479;51.902;8.212;2023-03-16T11:25:12;101207.75;;;8.68
71630;BMP280;59479;51.902;8.212;2023-03-16T11:32:53;101202.09;;;8.78
71630;BMP280;59479;51.902;8.212;2023-03-16T11:37:55;101195.47;;;8.83
71630;BMP280;59479;51.902;8.212;2023-03-16T11:43:44;101192.25;;;8.90
71630;BMP280;59479;51.902;8.212;2023-03-16T11:46:24;101194.00;;;8.94
71630;BMP280;59479;51.902;8.212;2023-03-16T11:51:47;101187.50;;;9.08
71630;BMP280;59479;51.902;8.212;2023-03-16T11:57:23;101190.91;;;9.11
71630;BMP280;59479;51.902;8.212;2023-03-16T12:00:19;101181.94;;;9.28
71630;BMP280;59479;51.902;8.212;2023-03-16T12:02:59;101169.41;;;9.28
71630;BMP280;59479;51.902;8.212;2023-03-16T12:08:35;101156.09;;;9.33
71630;BMP280;59479;51.902;8.212;2023-03-16T12:11:09;101151.94;;;9.35
71630;BMP280;59479;51.902;8.212;2023-03-16T12:13:54;101143.69;;;9.42
71630;BMP280;59479;51.902;8.212;2023-03-16T12:16:25;101124.56;;;9.53
71630;BMP280;59479;51.902;8.212;2023-03-16T12:19:00;101128.84;;;9.60
71630;BMP280;59479;51.902;8.212;2023-03-16T12:21:32;101118.72;;;9.53
71630;BMP280;59479;51.902;8.212;2023-03-16T12:24:07;101112.94;;;9.58
71630;BMP280;59479;51.902;8.212;2023-03-16T12:26:41;101104.53;;;9.55
71630;BMP280;59479;51.902;8.212;2023-03-16T12:29:18;101101.88;;;9.43
71630;BMP280;59479;51.902;8.212;2023-03-16T12:31:47;101108.75;;;9.59
71630;BMP280;59479;51.902;8.212;2023-03-16T12:50:28;101076.41;;;9.87
71630;BMP280;59479;51.902;8.212;2023-03-16T12:52:53;101067.25;;;9.89
71630;BMP280;59479;51.902;8.212;2023-03-16T12:57:49;101059.03;;;10.02
71630;BMP280;59479;51.902;8.212;2023-03-16T13:00:16;101047.25;;;9.95
71630;BMP280;59479;51.902;8.212;2023-03-16T13:02:49;101048.16;;;10.03
71630;BMP280;59479;51.902;8.212;2023-03-16T13:05:27;101047.28;;;9.99
71630;BMP280;59479;51.902;8.212;2023-03-16T13:08:05;101052.41;;;10.09
71630;BMP280;59479;51.902;8.212;2023-03-16T13:10:32;101050.00;;;10.21
71630;BMP280;59479;51.902;8.212;2023-03-16T13:13:13;101034.88;;;10.18
71630;BMP280;59479;51.902;8.212;2023-03-16T13:15:40;101028.25;;;10.26
71630;BMP280;59479;51.902;8.212;2023-03-16T13:28:30;100995.56;;;10.22
71630;BMP280;59479;51.902;8.212;2023-03-16T13:30:57;101002.28;;;10.24
71630;BMP280;59479;51.902;8.212;2023-03-16T13:33:24;101007.31;;;10.26
71630;BMP280;59479;51.902;8.212;2023-03-16T13:35:53;100999.72;;;10.18
71630;BMP280;59479;51.902;8.212;2023-03-16T13:38:20;101002.22;;;10.18
71630;BMP280;59479;51.902;8.212;2023-03-16T13:40:55;100993.97;;;10.31
71630;BMP280;59479;51.902;8.212;2023-03-16T13:43:26;100987.34;;;10.41
71630;BMP280;59479;51.902;8.212;2023-03-16T13:45:57;100981.47;;;10.43
71630;BMP280;59479;51.902;8.212;2023-03-16T13:48:23;100981.44;;;10.37
71630;BMP280;59479;51.902;8.212;2023-03-16T13:50:50;100970.63;;;10.50
71630;BMP280;59479;51.902;8.212;2023-03-16T13:53:25;100961.47;;;10.61
71630;BMP280;59479;51.902;8.212;2023-03-16T13:55:53;100960.63;;;10.57
71630;BMP280;59479;51.902;8.212;2023-03-16T13:58:29;100956.44;;;10.58
71630;BMP280;59479;51.902;8.212;2023-03-16T14:01:00;100945.53;;;10.56
71630;BMP280;59479;51.902;8.212;2023-03-16T14:03:31;100946.34;;;10.55
71630;BMP280;59479;51.902;8.212;2023-03-16T14:05:58;100932.94;;;10.47
71630;BMP280;59479;51.902;8.212;2023-03-16T14:08:24;100937.16;;;10.54
71630;BMP280;59479;51.902;8.212;2023-03-16T14:10:52;100933.00;;;10.65
71630;BMP280;59479;51.902;8.212;2023-03-16T14:16:02;100930.34;;;10.32
71630;BMP280;59479;51.902;8.212;2023-03-16T14:18:45;100926.22;;;10.46
71630;BMP280;59479;51.902;8.212;2023-03-16T14:21:19;100910.28;;;10.43
71630;BMP280;59479;51.902;8.212;2023-03-16T14:23:47;100911.16;;;10.49
71630;BMP280;59479;51.902;8.212;2023-03-16T14:26:16;100906.88;;;10.35
71630;BMP280;59479;51.902;8.212;2023-03-16T14:29:04;100901.03;;;10.40
71630;BMP280;59479;51.902;8.212;2023-03-16T14:31:38;100901.97;;;10.55
71630;BMP280;59479;51.902;8.212;2023-03-16T14:34:27;100905.34;;;10.66
71630;BMP280;59479;51.902;8.212;2023-03-16T14:37:05;100902.88;;;10.74
71630;BMP280;59479;51.902;8.212;2023-03-16T14:39:30;100896.19;;;10.76
71630;BMP280;59479;51.902;8.212;2023-03-16T14:41:56;100888.63;;;10.71
71630;BMP280;59479;51.902;8.212;2023-03-16T14:44:26;100881.91;;;10.67
71630;BMP280;59479;51.902;8.212;2023-03-16T14:46:53;100877.72;;;10.69
71630;BMP280;59479;51.902;8.212;2023-03-16T14:49:29;100870.16;;;10.60
71630;BMP280;59479;51.902;8.212;2023-03-16T14:52:00;100866.84;;;10.69
71630;BMP280;59479;51.902;8.212;2023-03-16T14:54:27;100857.59;;;10.66
71630;BMP280;59479;51.902;8.212;2023-03-16T14:56:57;100858.44;;;10.70
71630;BMP280;59479;51.902;8.212;2023-03-16T14:59:23;100860.13;;;10.68
71630;BMP280;59479;51.902;8.212;2023-03-16T15:01:49;100855.09;;;10.68
71630;BMP280;59479;51.902;8.212;2023-03-16T15:04:25;100839.19;;;10.67
71630;BMP280;59479;51.902;8.212;2023-03-16T15:06:52;100843.31;;;10.58
71630;BMP280;59479;51.902;8.212;2023-03-16T15:09:41;100842.56;;;10.72
71630;BMP280;59479;51.902;8.212;2023-03-16T15:12:14;100831.63;;;10.67
71630;BMP280;59479;51.902;8.212;2023-03-16T15:14:40;100820.75;;;10.73
71630;BMP280;59479;51.902;8.212;2023-03-16T15:17:24;100820.78;;;10.79
71630;BMP280;59479;51.902;8.212;2023-03-16T15:19:51;100820.78;;;10.88
71630;BMP280;59479;51.902;8.212;2023-03-16T15:22:24;100819.09;;;10.98
71630;BMP280;59479;51.902;8.212;2023-03-16T15:24:51;100802.34;;;11.03
71630;BMP280;59479;51.902;8.212;2023-03-16T15:27:19;100799.84;;;10.97
71630;BMP280;59479;51.902;8.212;2023-03-16T15:29:46;100792.28;;;10.94
71630;BMP280;59479;51.902;8.212;2023-03-16T15:32:13;100787.28;;;11.06
71630;BMP280;59479;51.902;8.212;2023-03-16T15:34:40;100793.13;;;10.98
71630;BMP280;59479;51.902;8.212;2023-03-16T15:37:11;100794.81;;;10.87
71630;BMP280;59479;51.902;8.212;2023-03-16T15:39:37;100797.31;;;10.94